Time;durP1;ratioP1;P1;durP2;ratioP2;P2;SDS_P1;SDS_P2;PMS_P1;PMS_P2;Temp;Humidity;BMP_temperature;BMP_pressure;BME280_temperature;BME280_humidity;BME280_pressure;Samples;Min_cycle;Max_cycle;Signal;HPM_P1;HPM_P2
2021/05/07 00:01:16;;;;;;;7.78;4.47;;;;;;;4.19;nan;100499.25;5018051;28;20083;-47
2021/05/07 00:03:42;;;;;;;8.43;4.30;;;;;;;4.05;nan;100495.03;5020304;28;20068;-48
2021/05/07 00:06:09;;;;;;;6.07;4.15;;;;;;;4.03;nan;100494.44;5011179;28;20495;-51
2021/05/07 00:08:36;;;;;;;5.90;3.63;;;;;;;3.93;nan;100487.72;5017493;28;20107;-48
2021/05/07 00:11:05;;;;;;;5.22;3.80;;;;;;;3.84;nan;100494.31;5021414;28;20029;-50
2021/05/07 00:13:30;;;;;;;8.65;3.55;;;;;;;3.78;nan;100491.69;5022973;28;20040;-49
2021/05/07 00:15:56;;;;;;;6.68;3.58;;;;;;;3.66;nan;100486.22;5020953;28;20025;-49
2021/05/07 00:18:22;;;;;;;6.80;3.70;;;;;;;3.61;nan;100486.03;5020128;28;20064;-47
2021/05/07 00:20:48;;;;;;;7.93;3.63;;;;;;;3.49;nan;100482.41;4999052;28;20469;-51
2021/05/07 00:23:13;;;;;;;11.27;4.13;;;;;;;3.37;nan;100484.84;5016717;28;20025;-49
2021/05/07 00:25:39;;;;;;;5.95;3.70;;;;;;;3.09;nan;100492.25;5017089;28;20060;-47
2021/05/07 00:28:11;;;;;;;6.90;4.07;;;;;;;3.08;nan;100496.72;5017086;28;20036;-48
2021/05/07 00:30:37;;;;;;;6.22;4.35;;;;;;;2.92;nan;100491.84;5016240;28;20479;-49
2021/05/07 00:33:04;;;;;;;8.82;4.90;;;;;;;2.96;nan;100501.00;5019642;28;20044;-47
2021/05/07 00:35:30;;;;;;;10.23;4.82;;;;;;;2.85;nan;100491.03;5020557;28;20029;-49
2021/05/07 00:37:55;;;;;;;6.78;4.70;;;;;;;2.87;nan;100499.56;5014826;28;20120;-47
2021/05/07 00:40:21;;;;;;;6.93;4.53;;;;;;;2.86;nan;100495.28;5015698;28;20037;-48
2021/05/07 00:42:47;;;;;;;7.70;4.30;;;;;;;2.87;nan;100492.47;5021619;28;20037;-47
2021/05/07 00:45:14;;;;;;;10.63;4.90;;;;;;;2.80;nan;100488.19;5019286;28;20056;-47
2021/05/07 00:48:00;;;;;;;9.32;4.93;;;;;;;2.80;nan;100488.19;5018984;28;20033;-48
2021/05/07 00:50:31;;;;;;;7.53;4.90;;;;;;;2.81;nan;100484.50;5020611;28;20029;-49
2021/05/07 00:53:00;;;;;;;8.05;4.43;;;;;;;2.77;nan;100483.28;5011899;28;20057;-49
2021/05/07 00:55:27;;;;;;;9.73;4.90;;;;;;;2.66;nan;100482.06;5016551;28;20867;-48
2021/05/07 00:57:52;;;;;;;8.38;4.85;;;;;;;2.66;nan;100482.88;5011689;28;20529;-48
2021/05/07 01:00:19;;;;;;;7.93;4.45;;;;;;;2.54;nan;100481.88;5017444;28;20030;-48
2021/05/07 01:02:44;;;;;;;8.88;4.70;;;;;;;2.46;nan;100487.31;5015407;28;20025;-48
2021/05/07 01:05:11;;;;;;;7.13;4.53;;;;;;;2.69;nan;100477.19;5017889;28;20514;-47
2021/05/07 01:07:37;;;;;;;6.93;4.57;;;;;;;2.42;nan;100479.00;5021871;28;20453;-49
2021/05/07 01:10:07;;;;;;;7.18;4.45;;;;;;;2.29;nan;100481.59;5015294;28;20033;-50
2021/05/07 01:12:35;;;;;;;8.75;4.80;;;;;;;2.19;nan;100481.19;5014643;28;20025;-50
2021/05/07 01:15:12;;;;;;;6.65;4.05;;;;;;;2.15;nan;100474.66;5015004;28;20065;-51
2021/05/07 01:17:57;;;;;;;7.25;3.97;;;;;;;2.10;nan;100483.19;5018512;28;20037;-50
2021/05/07 01:20:33;;;;;;;7.47;4.25;;;;;;;2.27;nan;100482.81;5019330;28;20035;-47
2021/05/07 01:23:01;;;;;;;7.18;4.63;;;;;;;2.38;nan;100482.25;5015950;28;20056;-49
2021/05/07 01:25:33;;;;;;;8.32;5.15;;;;;;;2.31;nan;100481.41;5019715;28;20037;-49
2021/05/07 01:28:01;;;;;;;9.35;4.63;;;;;;;2.31;nan;100481.41;5014453;28;20494;-49
2021/05/07 01:30:28;;;;;;;7.15;4.57;;;;;;;2.32;nan;100473.25;5020682;28;20033;-48
2021/05/07 01:32:54;;;;;;;8.32;4.60;;;;;;;2.37;nan;100472.69;5021881;28;20063;-47
2021/05/07 01:35:23;;;;;;;7.72;4.43;;;;;;;2.53;nan;100477.59;5017682;28;20029;-47
2021/05/07 01:37:51;;;;;;;7.00;3.97;;;;;;;2.59;nan;100473.31;5020190;28;20029;-49
2021/05/07 01:40:25;;;;;;;7.30;4.82;;;;;;;2.75;nan;100474.75;5021739;28;20029;-49
2021/05/07 01:42:53;;;;;;;5.57;4.07;;;;;;;2.69;nan;100474.56;5023010;28;20025;-48
2021/05/07 01:45:20;;;;;;;10.18;4.47;;;;;;;2.60;nan;100473.13;5022309;28;20029;-50
2021/05/07 01:47:46;;;;;;;6.75;4.53;;;;;;;2.56;nan;100477.19;5021715;28;20803;-49
2021/05/07 01:50:15;;;;;;;6.65;4.18;;;;;;;2.51;nan;100474.31;5021475;28;20419;-48
2021/05/07 01:52:41;;;;;;;11.70;4.78;;;;;;;2.51;nan;100470.84;5021679;28;20029;-51
2021/05/07 01:55:09;;;;;;;8.95;4.88;;;;;;;2.49;nan;100475.53;5016658;28;20048;-47
2021/05/07 01:57:36;;;;;;;8.48;4.82;;;;;;;2.42;nan;100468.41;5022187;28;20029;-47
2021/05/07 02:00:21;;;;;;;11.57;4.93;;;;;;;2.42;nan;100468.41;5020317;28;20096;-49
2021/05/07 02:02:47;;;;;;;9.10;4.88;;;;;;;2.24;nan;100472.66;5017567;28;20053;-50
2021/05/07 02:05:14;;;;;;;9.20;5.38;;;;;;;2.24;nan;100470.81;5020529;28;20563;-47
2021/05/07 02:07:42;;;;;;;8.18;5.25;;;;;;;2.22;nan;100472.03;5021127;28;20109;-47
2021/05/07 02:10:10;;;;;;;8.90;5.10;;;;;;;2.19;nan;100469.81;5020108;28;20094;-49
2021/05/07 02:12:35;;;;;;;8.30;5.32;;;;;;;2.20;nan;100476.72;5005170;28;20029;-47
2021/05/07 02:15:02;;;;;;;10.35;5.57;;;;;;;2.21;nan;100463.28;5018987;28;20492;-50
2021/05/07 02:17:27;;;;;;;9.57;5.32;;;;;;;2.20;nan;100466.16;5023708;28;20506;-48
2021/05/07 02:19:53;;;;;;;9.85;5.47;;;;;;;2.21;nan;100463.28;5020459;28;20052;-47
2021/05/07 02:22:19;;;;;;;8.40;5.40;;;;;;;2.23;nan;100465.75;5017878;28;20022;-47
2021/05/07 02:24:44;;;;;;;8.23;4.93;;;;;;;2.24;nan;100468.19;5018980;28;20021;-48
2021/05/07 02:27:10;;;;;;;10.85;5.43;;;;;;;2.25;nan;100469.81;5019498;28;20042;-47
2021/05/07 02:29:35;;;;;;;11.23;5.45;;;;;;;2.27;nan;100472.25;5020102;28;20026;-48
2021/05/07 02:32:00;;;;;;;12.82;6.80;;;;;;;2.31;nan;100469.00;5019983;28;20492;-49
2021/05/07 02:34:26;;;;;;;22.77;11.15;;;;;;;2.08;nan;100469.34;5006509;28;20399;-47
2021/05/07 02:36:51;;;;;;;13.43;6.75;;;;;;;2.12;nan;100470.59;5020839;28;20022;-47
2021/05/07 02:39:17;;;;;;;8.70;5.00;;;;;;;2.20;nan;100476.72;5018056;28;20065;-47
2021/05/07 02:41:43;;;;;;;7.40;4.60;;;;;;;2.22;nan;100472.03;5020841;28;20025;-47
2021/05/07 02:44:09;;;;;;;9.27;4.40;;;;;;;2.24;nan;100477.94;5018465;28;20714;-47
2021/05/07 02:46:35;;;;;;;9.38;4.53;;;;;;;2.20;nan;100476.72;5018144;28;20379;-49
2021/05/07 02:49:03;;;;;;;7.00;4.32;;;;;;;2.17;nan;100477.13;5018424;28;20128;-49
2021/05/07 02:51:29;;;;;;;8.90;5.10;;;;;;;2.10;nan;100475.25;5022019;28;20040;-47
2021/05/07 02:53:55;;;;;;;10.18;5.90;;;;;;;1.98;nan;100471.59;5019053;28;20021;-48
2021/05/07 02:56:21;;;;;;;10.13;5.97;;;;;;;1.93;nan;100471.34;5013422;28;20590;-48
2021/05/07 02:58:46;;;;;;;25.00;12.13;;;;;;;1.91;nan;100462.78;5020859;28;20099;-48
2021/05/07 03:01:12;;;;;;;28.17;13.07;;;;;;;1.83;nan;100460.34;5016691;28;20032;-48
2021/05/07 03:03:37;;;;;;;15.43;8.35;;;;;;;1.77;nan;100459.28;5021815;28;20112;-48
2021/05/07 03:06:03;;;;;;;15.02;7.93;;;;;;;1.71;nan;100462.72;5016590;28;20021;-47
2021/05/07 03:08:28;;;;;;;12.85;6.18;;;;;;;1.67;nan;100463.31;5016396;28;20025;-46
2021/05/07 03:10:54;;;;;;;11.73;5.03;;;;;;;1.68;nan;100462.31;5013505;28;20033;-49
2021/05/07 03:13:19;;;;;;;13.63;5.00;;;;;;;1.50;nan;100460.19;5013502;28;20079;-48
2021/05/07 03:15:45;;;;;;;7.72;4.68;;;;;;;1.52;nan;100466.09;5014922;28;20060;-47
2021/05/07 03:18:20;;;;;;;9.70;4.75;;;;;;;1.39;nan;100464.19;5011312;28;20594;-47
2021/05/07 03:20:47;;;;;;;9.85;4.60;;;;;;;1.42;nan;100462.97;5014120;28;20022;-48
2021/05/07 03:23:13;;;;;;;10.30;4.35;;;;;;;1.38;nan;100464.38;5016354;28;20491;-47
2021/05/07 03:25:39;;;;;;;8.43;4.72;;;;;;;1.28;nan;100456.84;5016392;28;20539;-48
2021/05/07 03:28:05;;;;;;;8.95;4.63;;;;;;;1.28;nan;100453.38;5017600;28;20140;-47
2021/05/07 03:30:33;;;;;;;8.00;4.57;;;;;;;1.28;nan;100467.41;5019937;28;20117;-50
2021/05/07 03:33:00;;;;;;;10.90;5.97;;;;;;;1.17;nan;100462.66;5014150;28;20583;-49
2021/05/07 03:35:26;;;;;;;14.75;6.85;;;;;;;1.17;nan;100463.47;5016782;28;20244;-50
2021/05/07 03:37:51;;;;;;;12.07;5.85;;;;;;;1.27;nan;100472.88;5014036;28;20110;-49
2021/05/07 03:40:17;;;;;;;13.65;6.50;;;;;;;1.30;nan;100475.94;5017580;28;20033;-49
2021/05/07 03:42:44;;;;;;;10.55;5.30;;;;;;;1.34;nan;100476.34;5015012;28;20238;-47
2021/05/07 03:45:12;;;;;;;9.02;5.45;;;;;;;1.34;nan;100471.88;5016124;28;20656;-47
2021/05/07 03:47:37;;;;;;;15.75;5.20;;;;;;;1.43;nan;100473.34;5016529;28;20029;-47
2021/05/07 03:50:04;;;;;;;10.80;5.18;;;;;;;1.44;nan;100471.56;5015646;28;20320;-48
2021/05/07 03:52:29;;;;;;;11.10;5.40;;;;;;;1.48;nan;100489.44;5019163;28;20095;-49
2021/05/07 03:54:55;;;;;;;11.43;5.03;;;;;;;1.47;nan;100493.09;5012960;28;20061;-47
2021/05/07 03:57:22;;;;;;;10.00;4.90;;;;;;;1.62;nan;100500.09;5017236;28;20060;-48
2021/05/07 03:59:48;;;;;;;13.27;5.32;;;;;;;1.77;nan;100500.75;5018298;28;20021;-47
2021/05/07 04:02:13;;;;;;;9.68;5.70;;;;;;;1.91;nan;100507.72;5016703;28;20426;-47
2021/05/07 04:04:40;;;;;;;6.10;4.07;;;;;;;1.97;nan;100514.03;5018857;28;20026;-47
2021/05/07 04:07:06;;;;;;;8.00;4.55;;;;;;;1.99;nan;100506.75;5009834;28;20457;-49
2021/05/07 04:09:42;;;;;;;10.48;5.15;;;;;;;2.06;nan;100507.56;5010340;28;20029;-47
2021/05/07 04:13:31;;;;;;;9.90;4.95;;;;;;;2.17;nan;100506.19;4999539;28;20025;-47
2021/05/07 04:15:09;;;;;;;9.45;4.88;;;;;;;2.20;nan;100511.06;5012972;28;20042;-47
2021/05/07 04:17:34;;;;;;;6.68;4.07;;;;;;;2.25;nan;100516.56;5014552;28;20025;-47
2021/05/07 04:20:00;;;;;;;10.27;4.80;;;;;;;2.30;nan;100522.06;5014461;28;20036;-49
2021/05/07 04:22:26;;;;;;;6.88;4.93;;;;;;;2.24;nan;100517.59;5015571;28;20499;-48
2021/05/07 04:24:51;;;;;;;8.05;5.55;;;;;;;2.15;nan;100519.59;5013081;28;20036;-48
2021/05/07 04:27:17;;;;;;;11.13;5.70;;;;;;;2.05;nan;100519.97;5008076;28;20026;-47
2021/05/07 04:29:42;;;;;;;10.73;5.25;;;;;;;1.93;nan;100524.19;5013650;28;20061;-48
2021/05/07 04:32:07;;;;;;;10.73;5.30;;;;;;;1.92;nan;100530.47;5009707;28;20100;-48
2021/05/07 04:34:33;;;;;;;8.13;4.60;;;;;;;1.98;nan;100520.97;5015521;28;20442;-47
2021/05/07 04:36:59;;;;;;;6.80;4.68;;;;;;;2.15;nan;100530.16;5013673;28;20068;-48
2021/05/07 04:39:24;;;;;;;5.70;4.00;;;;;;;2.31;nan;100536.91;5014189;28;20033;-47
2021/05/07 04:41:50;;;;;;;9.40;5.32;;;;;;;2.46;nan;100534.94;5018190;28;20393;-48
2021/05/07 04:44:15;;;;;;;7.53;4.72;;;;;;;2.60;nan;100541.88;5020154;28;20241;-47
2021/05/07 04:46:41;;;;;;;6.82;4.57;;;;;;;2.79;nan;100542.94;5015163;28;20123;-49
2021/05/07 04:49:10;;;;;;;8.13;4.40;;;;;;;2.79;nan;100542.94;5013218;28;20037;-47
2021/05/07 04:51:35;;;;;;;7.05;4.35;;;;;;;3.06;nan;100548.25;5016837;28;20033;-47
2021/05/07 04:54:02;;;;;;;7.03;4.45;;;;;;;3.13;nan;100547.22;5013415;28;20029;-50
2021/05/07 04:56:28;;;;;;;7.97;5.25;;;;;;;3.39;nan;100550.84;5012155;28;20424;-49
2021/05/07 04:58:54;;;;;;;14.32;7.57;;;;;;;3.70;nan;100548.38;5011626;28;20037;-49
2021/05/07 05:01:19;;;;;;;12.63;7.30;;;;;;;4.07;nan;100546.00;5003913;28;20029;-50
2021/05/07 05:03:45;;;;;;;15.48;6.75;;;;;;;4.37;nan;100555.06;5005537;28;20368;-48
2021/05/07 05:06:10;;;;;;;10.45;6.05;;;;;;;4.64;nan;100558.34;5006263;28;20431;-48
2021/05/07 05:08:35;;;;;;;9.52;4.70;;;;;;;4.93;nan;100564.91;5012665;28;20142;-48
2021/05/07 05:11:01;;;;;;;7.32;4.45;;;;;;;5.18;nan;100564.09;5013146;28;20025;-50
2021/05/07 05:13:27;;;;;;;9.10;4.88;;;;;;;5.58;nan;100560.09;5016422;28;20040;-48
2021/05/07 05:15:54;;;;;;;7.25;4.40;;;;;;;5.82;nan;100563.72;5011426;28;20165;-48
2021/05/07 05:18:32;;;;;;;9.65;4.82;;;;;;;6.21;nan;100559.81;5009920;28;20108;-49
2021/05/07 05:20:59;;;;;;;12.48;5.60;;;;;;;6.53;nan;100560.41;4990575;28;20530;-48
2021/05/07 05:23:26;;;;;;;13.73;6.75;;;;;;;6.76;nan;100565.00;5011941;28;20293;-48
2021/05/07 05:25:52;;;;;;;10.00;5.43;;;;;;;6.96;nan;100576.16;4999031;28;20104;-50
2021/05/07 05:28:18;;;;;;;14.55;5.70;;;;;;;7.07;nan;100571.09;5010690;28;20017;-48
2021/05/07 05:30:44;;;;;;;11.40;5.35;;;;;;;7.03;nan;100576.09;5010206;28;20051;-49
2021/05/07 05:33:09;;;;;;;10.70;5.43;;;;;;;7.04;nan;100582.22;5012272;28;20037;-50
2021/05/07 05:35:35;;;;;;;12.23;5.53;;;;;;;7.03;nan;100581.41;5015842;28;20036;-48
2021/05/07 05:38:01;;;;;;;8.98;5.35;;;;;;;7.01;nan;100583.50;5011238;28;20045;-49
2021/05/07 05:40:26;;;;;;;12.75;6.50;;;;;;;7.06;nan;100588.13;5000166;28;20033;-51
2021/05/07 05:42:52;;;;;;;10.95;5.72;;;;;;;7.18;nan;100580.94;5010324;28;20025;-51
2021/05/07 05:45:17;;;;;;;12.65;5.45;;;;;;;7.31;nan;100578.06;4997316;28;20026;-48
2021/05/07 05:47:43;;;;;;;13.30;5.50;;;;;;;7.56;nan;100584.03;5013345;28;20121;-51
2021/05/07 05:50:09;;;;;;;16.15;7.00;;;;;;;7.75;nan;100581.22;5011609;28;20525;-50
2021/05/07 05:52:35;;;;;;;13.40;6.38;;;;;;;8.03;nan;100585.81;5014671;28;20113;-48
2021/05/07 05:55:01;;;;;;;13.80;5.93;;;;;;;8.33;nan;100575.78;4997645;28;20049;-51
2021/05/07 05:57:27;;;;;;;13.15;5.38;;;;;;;8.68;nan;100581.00;5015276;28;20032;-49
2021/05/07 05:59:52;;;;;;;9.43;5.18;;;;;;;9.06;nan;100585.69;5012217;28;20033;-50
2021/05/07 06:02:19;;;;;;;17.20;6.22;;;;;;;9.48;nan;100582.59;5015689;28;20031;-49
2021/05/07 06:04:45;;;;;;;9.50;5.07;;;;;;;9.73;nan;100584.03;5014102;28;20096;-50
2021/05/07 06:07:10;;;;;;;13.30;6.03;;;;;;;10.11;nan;100589.38;5013054;28;20125;-51
2021/05/07 06:09:35;;;;;;;16.33;6.78;;;;;;;10.41;nan;100593.47;5015721;28;20468;-48
2021/05/07 06:12:06;;;;;;;10.63;4.22;;;;;;;10.46;nan;100578.31;5013231;28;20034;-52
2021/05/07 06:14:32;;;;;;;11.40;3.38;;;;;;;10.52;nan;100588.00;5012593;28;20033;-50
2021/05/07 06:16:58;;;;;;;7.47;3.38;;;;;;;10.52;nan;100593.34;5015548;28;20037;-48
2021/05/07 06:19:23;;;;;;;10.43;2.88;;;;;;;10.35;nan;100602.53;5016221;28;20092;-48
2021/05/07 06:21:49;;;;;;;9.13;2.42;;;;;;;10.16;nan;100604.69;5000935;28;20250;-53
2021/05/07 06:24:15;;;;;;;8.70;2.42;;;;;;;10.06;nan;100599.22;5016029;28;20025;-48
2021/05/07 06:26:40;;;;;;;9.25;2.33;;;;;;;10.17;nan;100598.25;5016524;28;20371;-52
2021/05/07 06:29:06;;;;;;;11.68;3.88;;;;;;;10.34;nan;100601.72;5011223;28;20326;-49
2021/05/07 06:31:31;;;;;;;13.57;4.75;;;;;;;10.38;nan;100610.88;5017972;28;20040;-48
2021/05/07 06:33:57;;;;;;;13.85;3.33;;;;;;;10.28;nan;100602.72;5015791;28;20029;-50
2021/05/07 06:36:23;;;;;;;18.33;4.20;;;;;;;10.32;nan;100606.50;5018095;28;20033;-49
2021/05/07 06:38:48;;;;;;;11.65;3.35;;;;;;;10.24;nan;100609.66;5016010;28;20073;-51
2021/05/07 06:41:14;;;;;;;8.15;2.97;;;;;;;10.10;nan;100611.84;5015706;28;20408;-48
2021/05/07 06:43:39;;;;;;;16.48;4.90;;;;;;;9.97;nan;100606.84;5016098;28;20399;-51
2021/05/07 06:46:05;;;;;;;14.00;5.95;;;;;;;9.88;nan;100605.66;5014924;28;20365;-49
2021/05/07 06:48:30;;;;;;;22.75;6.63;;;;;;;9.86;nan;100613.91;5020898;28;20017;-51
2021/05/07 06:50:56;;;;;;;24.48;8.77;;;;;;;10.06;nan;100604.56;5015588;28;20037;-50
2021/05/07 06:53:22;;;;;;;17.25;7.50;;;;;;;10.12;nan;100616.94;5015996;28;20314;-49
2021/05/07 06:55:47;;;;;;;16.15;6.45;;;;;;;10.10;nan;100609.16;5014851;28;20523;-52
2021/05/07 06:58:13;;;;;;;12.68;6.43;;;;;;;10.11;nan;100620.69;5015340;28;20213;-48
2021/05/07 07:00:38;;;;;;;13.05;5.82;;;;;;;10.18;nan;100615.94;5012669;28;20480;-52
2021/05/07 07:03:04;;;;;;;20.00;5.75;;;;;;;10.21;nan;100627.00;5013718;28;20575;-50
2021/05/07 07:05:29;;;;;;;15.57;5.32;;;;;;;10.06;nan;100620.63;5012681;28;20506;-48
2021/05/07 07:07:55;;;;;;;16.83;5.93;;;;;;;10.09;nan;100633.50;5008613;28;20042;-51
2021/05/07 07:10:21;;;;;;;10.93;4.28;;;;;;;10.17;nan;100625.03;5009910;28;20057;-51
2021/05/07 07:12:47;;;;;;;13.25;4.50;;;;;;;10.15;nan;100627.97;5013117;28;20039;-51
2021/05/07 07:15:13;;;;;;;14.85;5.22;;;;;;;10.26;nan;100629.75;5012299;28;20372;-52
2021/05/07 07:17:39;;;;;;;7.65;2.90;;;;;;;10.36;nan;100637.09;5014803;28;20095;-51
2021/05/07 07:20:06;;;;;;;7.43;2.60;;;;;;;10.33;nan;100632.25;5012737;28;20540;-51
2021/05/07 07:22:31;;;;;;;6.70;2.38;;;;;;;10.30;nan;100643.44;5013652;28;20425;-51
2021/05/07 07:24:57;;;;;;;6.30;1.98;;;;;;;10.01;nan;100648.09;5012477;28;20040;-51
2021/05/07 07:27:22;;;;;;;3.90;1.70;;;;;;;9.91;nan;100650.66;5009088;28;20037;-48
2021/05/07 07:29:47;;;;;;;5.57;2.00;;;;;;;9.79;nan;100655.28;5013437;28;20135;-52
2021/05/07 07:32:14;;;;;;;6.68;2.00;;;;;;;9.78;nan;100659.81;5011558;28;20051;-49
2021/05/07 07:34:40;;;;;;;4.88;1.90;;;;;;;9.58;nan;100664.88;5011335;28;20503;-51
2021/05/07 07:37:06;;;;;;;7.82;1.88;;;;;;;9.47;nan;100671.09;5011710;28;20086;-51
2021/05/07 07:39:31;;;;;;;5.45;1.70;;;;;;;9.25;nan;100668.31;5012983;28;20026;-49
2021/05/07 07:41:57;;;;;;;8.50;2.22;;;;;;;9.22;nan;100672.28;4999644;28;20037;-52
2021/05/07 07:44:22;;;;;;;7.55;1.67;;;;;;;9.03;nan;100676.22;5000342;28;20029;-48
2021/05/07 07:46:49;;;;;;;6.20;2.03;;;;;;;8.75;nan;100683.16;5009463;28;20095;-52
2021/05/07 07:49:15;;;;;;;8.02;2.00;;;;;;;8.86;nan;100683.38;5008823;28;20539;-49
2021/05/07 07:51:41;;;;;;;3.55;1.30;;;;;;;8.83;nan;100692.69;5008912;28;20381;-48
2021/05/07 07:54:08;;;;;;;9.07;1.77;;;;;;;8.81;nan;100694.78;5012009;28;20052;-48
2021/05/07 07:56:34;;;;;;;7.72;2.00;;;;;;;8.85;nan;100697.78;5009050;28;20373;-48
2021/05/07 07:59:00;;;;;;;9.50;2.63;;;;;;;9.02;nan;100695.97;5008702;28;20087;-52
2021/05/07 08:01:26;;;;;;;7.78;2.33;;;;;;;9.09;nan;100701.97;5009430;28;20033;-49
2021/05/07 08:03:52;;;;;;;8.23;2.22;;;;;;;9.14;nan;100704.75;5006911;28;20038;-49
2021/05/07 08:06:17;;;;;;;11.02;2.10;;;;;;;9.27;nan;100707.13;5009440;28;20026;-52
2021/05/07 08:08:43;;;;;;;6.45;1.77;;;;;;;9.28;nan;100705.25;5006052;28;20022;-49
2021/05/07 08:11:08;;;;;;;6.38;1.92;;;;;;;9.03;nan;100709.09;5007588;28;20041;-51
2021/05/07 08:13:34;;;;;;;5.75;2.10;;;;;;;8.97;nan;100714.56;4981143;28;20041;-49
2021/05/07 08:16:00;;;;;;;11.23;1.73;;;;;;;8.98;nan;100716.22;5010106;28;20033;-48
2021/05/07 08:18:26;;;;;;;7.50;1.77;;;;;;;8.53;nan;100724.09;5009717;28;20034;-52
2021/05/07 08:20:51;;;;;;;7.68;1.85;;;;;;;8.44;nan;100721.00;5008488;28;20042;-50
2021/05/07 08:23:17;;;;;;;6.70;2.17;;;;;;;7.98;nan;100729.78;5010937;28;20029;-52
2021/05/07 08:25:42;;;;;;;11.80;2.30;;;;;;;8.11;nan;100735.72;5011213;28;20112;-51
2021/05/07 08:28:08;;;;;;;9.50;2.08;;;;;;;8.15;nan;100734.19;5007718;28;20033;-48
2021/05/07 08:30:33;;;;;;;9.50;2.72;;;;;;;8.17;nan;100745.47;5009867;28;20563;-52
2021/05/07 08:32:58;;;;;;;8.80;2.47;;;;;;;8.12;nan;100752.53;5012907;28;20060;-50
2021/05/07 08:35:24;;;;;;;5.95;2.20;;;;;;;7.62;nan;100734.25;5010205;28;20079;-51
2021/05/07 08:37:52;;;;;;;14.88;2.75;;;;;;;7.70;nan;100746.44;5010170;28;20025;-51
2021/05/07 08:40:18;;;;;;;6.15;2.13;;;;;;;7.60;nan;100754.19;5009638;28;20125;-52
2021/05/07 08:42:44;;;;;;;12.45;2.65;;;;;;;7.69;nan;100747.47;5012749;28;20229;-50
2021/05/07 08:45:11;;;;;;;9.35;2.10;;;;;;;7.74;nan;100759.09;5009281;28;20704;-51
2021/05/07 08:47:37;;;;;;;5.53;2.03;;;;;;;7.95;nan;100759.59;5010360;28;20116;-49
2021/05/07 08:50:08;;;;;;;5.03;1.85;;;;;;;8.19;nan;100762.03;5003893;28;20026;-52
2021/05/07 08:52:35;;;;;;;10.80;2.50;;;;;;;8.23;nan;100762.38;5011621;28;20060;-51
2021/05/07 08:55:01;;;;;;;4.63;2.08;;;;;;;8.16;nan;100764.38;5007138;28;20030;-49
2021/05/07 08:57:27;;;;;;;11.52;2.30;;;;;;;8.10;nan;100765.31;5008135;28;20444;-49
2021/05/07 08:59:52;;;;;;;8.65;2.47;;;;;;;7.79;nan;100767.22;5006286;28;20040;-50
2021/05/07 09:02:29;;;;;;;5.85;1.92;;;;;;;7.93;nan;100778.50;4995465;28;20079;-48
2021/05/07 09:04:56;;;;;;;4.68;1.80;;;;;;;7.95;nan;100771.09;5005004;28;20036;-50
2021/05/07 09:07:29;;;;;;;4.22;2.00;;;;;;;8.16;nan;100781.19;5007418;28;20029;-50
2021/05/07 09:10:01;;;;;;;7.40;2.22;;;;;;;8.16;nan;100778.53;5004399;28;20029;-48
2021/05/07 09:12:32;;;;;;;6.05;1.70;;;;;;;8.33;nan;100783.19;5006983;28;20040;-51
2021/05/07 09:14:58;;;;;;;7.70;1.98;;;;;;;8.29;nan;100784.69;5004861;28;20045;-50
2021/05/07 09:17:27;;;;;;;3.30;0.95;;;;;;;8.14;nan;100791.28;5007058;28;20515;-48
2021/05/07 09:20:10;;;;;;;6.13;1.40;;;;;;;7.93;nan;100788.38;5013012;28;20084;-48
2021/05/07 09:22:37;;;;;;;8.30;2.03;;;;;;;7.86;nan;100791.13;5011349;28;20038;-52
2021/05/07 09:25:15;;;;;;;10.55;1.92;;;;;;;7.99;nan;100790.09;5011481;28;20459;-51
2021/05/07 09:27:41;;;;;;;5.40;1.60;;;;;;;8.04;nan;100801.72;5011917;28;20198;-49
2021/05/07 09:30:11;;;;;;;4.22;1.80;;;;;;;8.27;nan;100803.63;5010023;28;20034;-49
2021/05/07 09:32:37;;;;;;;7.78;1.50;;;;;;;8.12;nan;100793.38;5013662;28;20017;-51
2021/05/07 09:35:11;;;;;;;5.70;1.98;;;;;;;8.04;nan;100804.38;5012398;28;20172;-51
2021/05/07 09:37:37;;;;;;;4.20;1.73;;;;;;;8.12;nan;100808.59;5010705;28;20018;-51
2021/05/07 09:40:20;;;;;;;2.35;1.48;;;;;;;8.10;nan;100811.50;5009995;28;20267;-51
2021/05/07 09:42:47;;;;;;;3.35;1.30;;;;;;;8.34;nan;100808.88;5012665;28;20042;-49
2021/05/07 09:45:26;;;;;;;7.35;1.60;;;;;;;8.22;nan;100816.00;5006842;28;20060;-50
2021/05/07 09:47:53;;;;;;;6.30;2.35;;;;;;;8.02;nan;100817.13;5010731;28;20076;-50
2021/05/07 09:50:30;;;;;;;5.18;2.03;;;;;;;7.81;nan;100818.50;5012089;28;20136;-50
2021/05/07 09:52:55;;;;;;;7.45;2.00;;;;;;;7.47;nan;100828.00;5017618;28;20045;-51
2021/05/07 09:55:30;;;;;;;5.00;2.00;;;;;;;7.12;nan;100841.13;5012484;28;20029;-51
2021/05/07 09:57:56;;;;;;;4.03;1.92;;;;;;;7.06;nan;100835.91;5004208;28;20060;-50
2021/05/07 10:00:22;;;;;;;2.45;1.35;;;;;;;7.02;nan;100845.38;5014774;28;20036;-50
2021/05/07 10:02:49;;;;;;;5.95;1.80;;;;;;;6.91;nan;100850.38;5017231;28;20038;-51
2021/05/07 10:05:16;;;;;;;8.63;1.60;;;;;;;7.13;nan;100845.44;5017787;28;20030;-48
2021/05/07 10:07:41;;;;;;;5.75;1.73;;;;;;;6.63;nan;100850.84;5014629;28;20243;-48
2021/05/07 10:10:08;;;;;;;4.63;1.40;;;;;;;7.13;nan;100852.59;5015062;28;20033;-48
2021/05/07 10:12:36;;;;;;;5.07;1.75;;;;;;;7.12;nan;100862.44;5014590;28;20270;-50
2021/05/07 10:15:04;;;;;;;3.55;2.05;;;;;;;7.01;nan;100862.41;5014634;28;20119;-51
2021/05/07 10:17:30;;;;;;;6.25;2.08;;;;;;;7.41;nan;100860.88;5011045;28;20266;-48
2021/05/07 10:19:55;;;;;;;4.55;1.65;;;;;;;6.92;nan;100867.19;5017874;28;20037;-47
2021/05/07 10:22:26;;;;;;;1.70;1.40;;;;;;;7.09;nan;100878.06;5015209;28;20030;-50
2021/05/07 10:24:53;;;;;;;6.25;1.60;;;;;;;6.94;nan;100873.91;5016757;28;20049;-51
2021/05/07 10:27:22;;;;;;;6.60;1.73;;;;;;;6.71;nan;100880.91;5014140;28;20030;-49
2021/05/07 10:29:56;;;;;;;6.10;1.70;;;;;;;6.71;nan;100889.72;5013381;28;20076;-52
2021/05/07 10:32:38;;;;;;;2.55;1.33;;;;;;;6.74;nan;100886.63;5011158;28;20068;-49
2021/05/07 10:35:07;;;;;;;5.65;1.77;;;;;;;6.97;nan;100891.31;5012282;28;20034;-51
2021/05/07 10:37:41;;;;;;;3.60;1.88;;;;;;;6.86;nan;100890.19;5017593;28;20510;-48
2021/05/07 10:40:09;;;;;;;3.60;1.65;;;;;;;6.46;nan;100900.34;5013835;28;20057;-48
2021/05/07 10:42:34;;;;;;;7.32;2.00;;;;;;;5.78;nan;100912.66;5016319;28;20033;-50
2021/05/07 10:45:01;;;;;;;6.13;2.25;;;;;;;5.96;nan;100900.31;5013057;28;20034;-51
2021/05/07 10:47:36;;;;;;;5.05;1.90;;;;;;;5.98;nan;100919.53;5013100;28;20067;-48
2021/05/07 10:50:18;;;;;;;2.88;1.65;;;;;;;5.46;nan;100921.38;5013911;28;20433;-48
2021/05/07 10:52:44;;;;;;;6.38;2.03;;;;;;;5.59;nan;100925.84;5013941;28;20026;-50
2021/05/07 10:55:10;;;;;;;5.82;2.63;;;;;;;5.53;nan;100926.66;5011757;28;20025;-50
2021/05/07 10:57:38;;;;;;;6.47;2.72;;;;;;;5.39;nan;100925.09;5008123;28;20057;-50
2021/05/07 11:00:12;;;;;;;4.03;1.98;;;;;;;5.28;nan;100939.84;5009744;28;20334;-52
2021/05/07 11:02:51;;;;;;;4.97;2.05;;;;;;;5.14;nan;100936.38;4998394;28;20025;-51
2021/05/07 11:05:53;;;;;;;4.63;2.28;;;;;;;5.26;nan;100947.19;5013383;28;20021;-48
2021/05/07 11:08:30;;;;;;;4.90;2.25;;;;;;;5.25;nan;100950.06;5010838;28;20033;-48
2021/05/07 11:10:56;;;;;;;5.18;2.20;;;;;;;5.52;nan;100948.94;5008915;28;20076;-49
2021/05/07 11:13:21;;;;;;;5.70;2.20;;;;;;;5.58;nan;100958.75;5008556;28;20141;-52
2021/05/07 11:15:57;;;;;;;5.72;1.92;;;;;;;5.27;nan;100955.97;5008788;28;20029;-49
2021/05/07 11:18:32;;;;;;;5.20;2.08;;;;;;;5.24;nan;100961.72;5007746;28;20034;-49
2021/05/07 11:21:09;;;;;;;3.13;2.10;;;;;;;5.31;nan;100959.84;5007258;28;20036;-50
2021/05/07 11:23:34;;;;;;;7.30;2.10;;;;;;;5.34;nan;100962.09;5008344;28;20080;-50
2021/05/07 11:26:09;;;;;;;3.33;1.85;;;;;;;5.31;nan;100959.84;5008641;28;20034;-48
2021/05/07 11:28:44;;;;;;;2.20;1.80;;;;;;;5.70;nan;100959.72;5007692;28;20113;-51
2021/05/07 11:31:10;;;;;;;5.28;2.53;;;;;;;5.81;nan;100960.09;5007618;28;20396;-51
2021/05/07 11:33:36;;;;;;;2.78;1.90;;;;;;;6.01;nan;100950.19;4994176;28;20179;-49
2021/05/07 11:36:04;;;;;;;5.22;2.13;;;;;;;6.76;nan;100947.63;5011727;28;20434;-50
2021/05/07 11:38:29;;;;;;;9.63;2.15;;;;;;;7.49;nan;100953.88;5008266;28;20046;-51
2021/05/07 11:40:55;;;;;;;3.72;1.83;;;;;;;6.52;nan;100946.63;5012492;28;20302;-50
2021/05/07 11:43:20;;;;;;;5.93;2.10;;;;;;;6.45;nan;100956.47;5007510;28;20096;-49
2021/05/07 11:45:46;;;;;;;6.05;1.90;;;;;;;6.89;nan;100955.53;5007398;28;20029;-50
2021/05/07 11:48:12;;;;;;;2.47;1.45;;;;;;;6.98;nan;100952.34;5011036;28;20438;-52